ESND

Details ICAO ESND (EVG)
Name SVEG
Region Sweden
Timezone Europe/Stockholm (UTC+1.0)
Plans Departing 2
Arriving 2
Stats Elevation 1,178 ft / 359 m (AMSL)
Location 62.047729° 14.421031°
Runways 1
Magnetic Variation 4.984° E
Sunrise 2017-12-11 08:17:11 UTC / 2017-12-11 09:17:11 Local
Sunset 2017-12-11 13:36:50 UTC / 2017-12-11 14:36:50 Local
Advertisement - Login to hide

Runways

ID Width Length Bearing (true) Bearing (mag) Surface Threshold Offset Overrun Length
09 98 ft / 30 m 5,560 ft / 1,695 m 87.03° 82.05° Asphalt 0 ft / 0 m 0 ft / 0 m
27 98 ft / 30 m 5,560 ft / 1,695 m 267.06° 262.08° Asphalt 0 ft / 0 m 0 ft / 0 m

Approach Navaids

Runway Type Ident Frequency Range Bearing (true) Bearing (mag) Slope Elevation
09 Localiser IND 109.10 MHz 18 nm / 33 km 87.05° 82.07° - 1,178 ft / 359 m (AMSL)

Map

Weather


0- 5 10 15 20 25 30 35+ Temperature / ° C

Clouds and Precipitation
Forecast for 2017-12-12 00:00 UTC. Updated 2 hours ago

Ground ~20,000 ft ~40,000 ft Winds

METAR

ESND 112020Z AUTO 00000KT 0250 R09/0650N FZFG VV002 M07/M08 Q0997

TAF

Not found

Frequencies

Tower 122.20 MHz AFIS
Warning: Do not use this data for real-world aviation or navigation. No guarantee of current accuracy is given.